METAR Data
IDs: Format: Raw Decoded Include TAF

Data at: 1112 UTC 30 Oct 2020

KAEL 301055Z AUTO 00000KT 10SM OVC048 M01/M03 A3021 RMK AO2
KAEL 301035Z AUTO 00000KT 10SM OVC050 M01/M03 A3020 RMK AO2
KAEL 301015Z AUTO 00000KT 10SM OVC050 M01/M03 A3019 RMK AO2
KAEL 300955Z AUTO 00000KT 10SM OVC050 M01/M03 A3019 RMK AO2
KAEL 300935Z AUTO 07003KT 10SM OVC050 M01/M03 A3018 RMK AO2
KAEL 300915Z AUTO 00000KT 10SM BKN050 OVC055 M01/M03 A3018 RMK AO2
KAEL 300855Z AUTO 00000KT 10SM OVC050 M01/M03 A3018 RMK AO2
KAEL 300835Z AUTO 00000KT 10SM BKN050 BKN075 OVC095 M01/M02 A3019 RMK AO2
KAEL 300815Z AUTO 00000KT 10SM SCT075 OVC095 M01/M03 A3018 RMK AO2
KAEL 300755Z AUTO 00000KT 10SM OVC095 M01/M02 A3018 RMK AO2
KAEL 300735Z AUTO 00000KT 10SM OVC095 M01/M03 A3018 RMK AO2
KAEL 300715Z AUTO 00000KT 10SM SCT065 OVC095 M01/M03 A3018 RMK AO2
KAEL 300655Z AUTO 00000KT 10SM SCT055 BKN080 OVC095 M01/M03 A3018 RMK AO2
KAEL 300635Z AUTO 00000KT 10SM SCT055 SCT065 OVC095 M01/M03 A3019 RMK AO2
KAEL 300615Z AUTO 00000KT 10SM OVC065 M01/M03 A3018 RMK AO2
KAEL 300555Z AUTO 00000KT 10SM OVC075 M01/M03 A3017 RMK AO2
KAEL 300535Z AUTO 00000KT 10SM SCT065 OVC085 M01/M03 A3017 RMK AO2
KAEL 300515Z AUTO 00000KT 10SM SCT070 BKN085 120 M01/M03 A3016 RMK AO2
KAEL 300455Z AUTO 00000KT 10SM BKN070 OVC085 M01/M03 A3015 RMK AO2
KAEL 300435Z AUTO 00000KT 10SM OVC070 M01/M03 A3015 RMK AO2
KAEL 300415Z AUTO 00000KT 10SM OVC080 M01/M03 A3014 RMK AO2
KAEL 300355Z AUTO 00000KT 10SM BKN080 BKN090 OVC110 M01/M03 A3014 RMK AO2
KAEL 300335Z AUTO 00000KT 10SM BKN090 120 M01/M03 A3014 RMK AO2
KAEL 300315Z AUTO 00000KT 10SM OVC090 M01/M03 A3014 RMK AO2
KAEL 300255Z AUTO 00000KT 10SM OVC090 M01/M03 A3014 RMK AO2
KAEL 300235Z AUTO 00000KT 10SM SCT028 OVC100 M01/M03 A3015 RMK AO2
KAEL 300215Z AUTO 00000KT 10SM SCT028 OVC100 M01/M03 A3014 RMK AO2
KAEL 300155Z AUTO 00000KT 10SM BKN029 OVC110 M01/M03 A3014 RMK AO2
KAEL 300135Z AUTO 00000KT 10SM SCT028 BKN110 M01/M03 A3014 RMK AO2
KAEL 300115Z AUTO 00000KT 10SM BKN028 M01/M03 A3014 RMK AO2
KAEL 300055Z AUTO 31003KT 10SM BKN028 M01/M03 A3014 RMK AO2
KAEL 300035Z AUTO 30004KT 10SM OVC028 M01/M03 A3014 RMK AO2
KAEL 300015Z AUTO 00000KT 10SM OVC028 M01/M03 A3012 RMK AO2
KAEL 292355Z AUTO 00000KT 10SM BKN028 00/M04 A3011 RMK AO2
KAEL 292335Z AUTO 00000KT 10SM BKN028 00/M03 A3011 RMK AO2
KAEL 292315Z AUTO 00000KT 10SM OVC028 01/M04 A3010 RMK AO2
KAEL 292255Z AUTO 00000KT 10SM OVC028 01/M04 A3011 RMK AO2
KAEL 292235Z AUTO 32004KT 10SM OVC028 01/M03 A3011 RMK AO2
KAEL 292215Z AUTO 33004KT 10SM OVC028 01/M04 A3012 RMK AO2
KAEL 292155Z AUTO 31004KT 10SM OVC028 01/M03 A3011 RMK AO2
KAEL 292135Z AUTO 32003KT 10SM OVC028 02/M03 A3010 RMK AO2
KAEL 292115Z AUTO 32005KT 10SM OVC028 02/M03 A3010 RMK AO2
KAEL 292055Z AUTO 32006KT 10SM OVC030 02/M03 A3010 RMK AO2
KAEL 292035Z AUTO 36006KT 10SM OVC030 02/M03 A3010 RMK AO2
KAEL 292015Z AUTO 33006KT 10SM SCT025 OVC030 02/M02 A3009 RMK AO2
KAEL 291955Z AUTO 32006KT 10SM SCT024 OVC030 02/M02 A3010 RMK AO2
KAEL 291935Z AUTO 33008KT 10SM SCT021 OVC032 02/M02 A3010 RMK AO2
KAEL 291915Z AUTO 33007KT 10SM SCT021 OVC034 02/M02 A3010 RMK AO2
KAEL 291855Z AUTO 33008KT 10SM SCT023 OVC037 02/M02 A3011 RMK AO2
KAEL 291835Z AUTO 35008KT 10SM SCT023 OVC037 02/M02 A3011 RMK AO2
KAEL 291815Z AUTO 34005KT 10SM BKN021 OVC037 02/M02 A3011 RMK AO2
KAEL 291755Z AUTO 34010KT 10SM BKN021 BKN030 OVC037 02/M02 A3012 RMK AO2
KAEL 291735Z AUTO 34007KT 10SM OVC021 02/M02 A3012 RMK AO2
KAEL 291715Z AUTO 35008KT 10SM OVC019 02/M02 A3012 RMK AO2